Time;durP1;ratioP1;P1;durP2;ratioP2;P2;SDS_P1;SDS_P2;PMS_P1;PMS_P2;Temp;Humidity;BMP_temperature;BMP_pressure;BME280_temperature;BME280_humidity;BME280_pressure;Samples;Min_cycle;Max_cycle;Signal;HPM_P1;HPM_P2
2021/08/31 00:02:36;;;;;;;0.93;0.40;;;;;;;12.97;100.00;101293.50;4990764;28;20532;-77
2021/08/31 00:05:38;;;;;;;2.80;0.43;;;;;;;12.97;100.00;101291.50;4990779;28;20085;-77
2021/08/31 00:08:41;;;;;;;0.10;0.10;;;;;;;12.99;100.00;101288.25;4992301;28;20671;-77
2021/08/31 00:11:45;;;;;;;3.50;0.40;;;;;;;13.08;100.00;101297.47;4992780;28;20505;-78
2021/08/31 00:14:49;;;;;;;1.50;0.30;;;;;;;12.95;100.00;101303.13;4992794;28;20046;-77
2021/08/31 00:17:52;;;;;;;1.48;0.50;;;;;;;12.85;100.00;101297.94;4992766;28;20045;-77
2021/08/31 00:20:54;;;;;;;0.20;0.20;;;;;;;13.09;100.00;101307.44;4992723;28;20049;-77
2021/08/31 00:23:57;;;;;;;0.22;0.20;;;;;;;13.26;100.00;101294.00;4992299;28;20077;-78
2021/08/31 00:27:00;;;;;;;0.45;0.43;;;;;;;13.58;100.00;101277.50;5003153;28;20460;-78
2021/08/31 00:30:05;;;;;;;1.17;0.40;;;;;;;14.61;100.00;101273.91;4992538;28;20081;-78
2021/08/31 00:33:08;;;;;;;1.58;0.50;;;;;;;13.82;100.00;101280.50;4992558;28;20132;-78
2021/08/31 00:36:10;;;;;;;0.80;0.57;;;;;;;13.12;100.00;101288.97;4992612;28;20089;-78
2021/08/31 00:39:13;;;;;;;0.70;0.35;;;;;;;13.30;100.00;101275.84;4992602;28;20037;-77
2021/08/31 00:42:17;;;;;;;2.90;0.52;;;;;;;12.52;100.00;101302.34;4992468;28;20119;-78
2021/08/31 00:45:19;;;;;;;0.25;0.25;;;;;;;12.25;100.00;101307.72;4992152;28;20064;-78
2021/08/31 00:48:24;;;;;;;1.02;0.35;;;;;;;12.03;100.00;101300.06;4991897;28;20053;-78
2021/08/31 00:51:27;;;;;;;0.43;0.30;;;;;;;11.84;100.00;101303.91;4992099;28;20081;-78
2021/08/31 00:54:30;;;;;;;1.17;0.40;;;;;;;11.78;100.00;101305.69;4992193;28;20045;-78
2021/08/31 00:57:35;;;;;;;0.20;0.20;;;;;;;11.76;100.00;101308.13;4992073;28;20068;-78
2021/08/31 01:00:38;;;;;;;0.30;0.30;;;;;;;11.82;100.00;101311.94;4992119;28;20120;-78
2021/08/31 01:03:42;;;;;;;1.90;0.32;;;;;;;11.89;100.00;101314.50;4991868;28;20065;-78
2021/08/31 01:06:47;;;;;;;0.28;0.28;;;;;;;11.91;100.00;101309.22;4992331;28;20045;-78
2021/08/31 01:09:51;;;;;;;0.10;0.10;;;;;;;11.86;100.00;101312.63;5011748;28;20049;-78
2021/08/31 01:12:54;;;;;;;0.73;0.43;;;;;;;11.86;100.00;101311.81;5011810;28;20041;-78
2021/08/31 01:15:57;;;;;;;0.63;0.22;;;;;;;11.87;100.00;101314.16;5011825;28;20132;-78
2021/08/31 01:19:01;;;;;;;0.47;0.20;;;;;;;11.93;100.00;101312.34;5014744;28;20518;-78
2021/08/31 01:22:10;;;;;;;1.95;0.30;;;;;;;11.97;100.00;101315.84;5015584;28;20091;-78
2021/08/31 01:25:13;;;;;;;0.30;0.10;;;;;;;12.00;100.00;101317.72;5015299;28;20069;-78
2021/08/31 01:28:30;;;;;;;0.65;0.65;;;;;;;12.03;100.00;101311.22;5015139;28;20511;-78
2021/08/31 01:31:33;;;;;;;0.10;0.00;;;;;;;12.00;100.00;101312.13;5014884;28;20040;-78
2021/08/31 01:34:37;;;;;;;0.10;0.10;;;;;;;11.93;100.00;101312.34;5014967;28;20172;-77
2021/08/31 01:37:39;;;;;;;0.10;0.10;;;;;;;11.94;100.00;101315.94;5029958;28;20048;-78
2021/08/31 01:40:42;;;;;;;0.15;0.15;;;;;;;11.88;100.00;101310.16;5034692;28;20053;-79
2021/08/31 01:43:45;;;;;;;0.90;0.45;;;;;;;11.87;100.00;101311.38;5035233;28;20041;-80
2021/08/31 01:46:48;;;;;;;0.10;0.10;;;;;;;11.88;100.00;101310.16;5033972;28;20114;-79
2021/08/31 01:49:51;;;;;;;0.88;0.45;;;;;;;11.92;100.00;101310.81;5033218;28;20047;-79
2021/08/31 01:52:55;;;;;;;0.10;0.10;;;;;;;11.95;100.00;101309.91;5034651;28;20411;-80
2021/08/31 01:55:58;;;;;;;0.13;0.13;;;;;;;11.98;100.00;101317.38;5022127;28;20510;-76
2021/08/31 01:59:01;;;;;;;0.60;0.60;;;;;;;12.00;100.00;101322.50;5034556;28;20080;-76
2021/08/31 02:02:05;;;;;;;0.55;0.10;;;;;;;12.00;100.00;101317.72;5034116;28;20049;-79
2021/08/31 02:05:08;;;;;;;0.50;0.30;;;;;;;11.98;100.00;101317.38;5021668;28;20044;-79
2021/08/31 02:08:12;;;;;;;0.28;0.28;;;;;;;11.96;100.00;101321.84;5014709;28;20101;-77
2021/08/31 02:11:15;;;;;;;0.25;0.25;;;;;;;11.94;100.00;101325.09;4995198;28;20531;-77
2021/08/31 02:14:18;;;;;;;0.30;0.20;;;;;;;11.96;100.00;101328.22;4994910;28;20068;-81
2021/08/31 02:17:21;;;;;;;0.28;0.28;;;;;;;11.97;100.00;101324.22;4993680;28;20052;-75
2021/08/31 02:20:24;;;;;;;0.40;0.20;;;;;;;12.00;100.00;101328.09;4999593;28;20044;-80
2021/08/31 02:23:26;;;;;;;0.40;0.40;;;;;;;12.02;100.00;101326.41;5014239;28;20049;-76
2021/08/31 02:26:31;;;;;;;0.13;0.10;;;;;;;12.01;100.00;101341.63;5013773;28;20052;-77
2021/08/31 02:29:35;;;;;;;0.22;0.10;;;;;;;12.02;100.00;101332.00;5012504;28;20049;-76
2021/08/31 02:32:38;;;;;;;9.68;0.32;;;;;;;12.03;100.00;101339.16;5013345;28;20419;-77
2021/08/31 02:35:41;;;;;;;1.05;0.30;;;;;;;12.71;100.00;101326.44;5014093;28;20150;-76
2021/08/31 02:38:44;;;;;;;0.40;0.17;;;;;;;14.51;100.00;101308.03;5014167;28;20052;-75
2021/08/31 02:41:47;;;;;;;0.98;0.57;;;;;;;15.02;100.00;101297.69;5013771;28;20092;-75
2021/08/31 02:44:50;;;;;;;0.40;0.40;;;;;;;15.10;100.00;101294.06;5013877;28;20419;-75
2021/08/31 02:47:52;;;;;;;0.10;0.10;;;;;;;15.05;100.00;101300.31;5013805;28;20045;-76
2021/08/31 02:50:55;;;;;;;0.57;0.22;;;;;;;14.99;100.00;101295.81;5013909;28;20100;-75
2021/08/31 02:53:58;;;;;;;1.25;0.47;;;;;;;14.75;100.00;101301.31;5013778;28;20085;-77
2021/08/31 02:57:01;;;;;;;3.20;0.65;;;;;;;15.08;100.00;101302.19;5013492;28;20048;-77
2021/08/31 03:00:05;;;;;;;1.55;0.70;;;;;;;15.11;100.00;101297.66;5013627;28;20048;-77
2021/08/31 03:03:09;;;;;;;1.10;0.63;;;;;;;14.82;100.00;101301.00;5024385;28;20118;-76
2021/08/31 03:06:12;;;;;;;4.50;0.63;;;;;;;15.15;100.00;101295.47;5013302;28;20558;-76
2021/08/31 03:09:15;;;;;;;1.10;0.95;;;;;;;15.25;100.00;101287.78;5013285;28;20133;-75
2021/08/31 03:12:18;;;;;;;0.98;0.70;;;;;;;15.31;100.00;101283.84;5013202;28;20426;-74
2021/08/31 03:15:21;;;;;;;1.10;0.32;;;;;;;15.34;100.00;101290.56;5012561;28;20048;-76
2021/08/31 03:18:24;;;;;;;0.20;0.20;;;;;;;15.25;100.00;101294.16;5012757;28;20049;-76
2021/08/31 03:21:29;;;;;;;0.50;0.43;;;;;;;15.30;100.00;101289.94;5013191;28;20049;-76
2021/08/31 03:24:32;;;;;;;2.05;0.65;;;;;;;15.39;100.00;101292.72;5012819;28;20578;-76
2021/08/31 03:27:35;;;;;;;1.23;0.52;;;;;;;15.51;100.00;101288.94;5012698;28;20095;-76
2021/08/31 03:30:39;;;;;;;1.13;0.65;;;;;;;15.40;100.00;101294.28;5012795;28;20133;-76
2021/08/31 03:33:42;;;;;;;2.65;0.30;;;;;;;14.58;100.00;101302.88;5012956;28;20052;-76
2021/08/31 03:36:45;;;;;;;0.55;0.55;;;;;;;15.02;100.00;101298.47;5012952;28;20041;-76
2021/08/31 03:39:48;;;;;;;1.38;0.95;;;;;;;14.74;100.00;101296.97;5012977;28;20408;-76
2021/08/31 03:42:51;;;;;;;0.40;0.40;;;;;;;14.71;100.00;101295.06;5012913;28;20045;-77
2021/08/31 03:45:54;;;;;;;0.75;0.13;;;;;;;14.67;100.00;101296.47;5012950;28;20049;-76
2021/08/31 03:48:56;;;;;;;1.63;0.43;;;;;;;14.61;100.00;101301.94;5012883;28;20067;-76
2021/08/31 03:51:59;;;;;;;0.47;0.47;;;;;;;14.67;100.00;101308.47;5012891;28;20566;-76
2021/08/31 03:55:03;;;;;;;0.43;0.20;;;;;;;14.69;100.00;101308.78;5012020;28;20045;-76
2021/08/31 03:58:06;;;;;;;1.75;0.30;;;;;;;14.69;100.00;101311.59;5012446;28;20036;-77
2021/08/31 04:01:09;;;;;;;0.65;0.40;;;;;;;14.65;100.00;101313.78;5012658;28;20037;-76
2021/08/31 04:04:12;;;;;;;0.50;0.30;;;;;;;14.47;100.00;101313.03;5012500;28;20053;-76
2021/08/31 04:07:17;;;;;;;0.50;0.50;;;;;;;14.57;100.00;101306.94;5012755;28;20052;-76
2021/08/31 04:10:19;;;;;;;0.35;0.35;;;;;;;14.59;100.00;101315.66;5011932;28;20053;-76
2021/08/31 04:13:22;;;;;;;0.35;0.32;;;;;;;14.66;100.00;101322.97;5012010;28;20519;-76
2021/08/31 04:16:25;;;;;;;1.00;0.40;;;;;;;14.71;100.00;101322.34;5012165;28;20072;-76
2021/08/31 04:19:28;;;;;;;1.85;0.52;;;;;;;14.71;100.00;101323.13;5012201;28;20052;-76
2021/08/31 04:22:31;;;;;;;2.22;0.40;;;;;;;14.71;100.00;101323.13;5012299;28;20077;-77
2021/08/31 04:25:34;;;;;;;2.05;0.75;;;;;;;14.71;100.00;101323.13;5011988;28;20514;-76
2021/08/31 04:28:37;;;;;;;3.13;0.52;;;;;;;14.77;100.00;101320.47;5011872;28;20056;-76
2021/08/31 04:31:40;;;;;;;5.72;0.68;;;;;;;14.74;100.00;101322.19;5011867;28;20137;-76
2021/08/31 04:34:43;;;;;;;2.55;0.52;;;;;;;14.68;100.00;101317.69;5012232;28;20044;-76
2021/08/31 04:37:46;;;;;;;4.82;1.23;;;;;;;14.62;100.00;101311.16;5012178;28;20519;-76
2021/08/31 04:40:49;;;;;;;3.90;0.80;;;;;;;14.57;100.00;101317.38;5011894;28;20100;-76
2021/08/31 04:43:52;;;;;;;2.38;1.02;;;;;;;14.50;100.00;101315.66;5012073;28;20057;-76
2021/08/31 04:46:55;;;;;;;4.75;0.73;;;;;;;14.42;100.00;101317.22;5012353;28;20040;-76
2021/08/31 04:49:57;;;;;;;3.55;0.63;;;;;;;14.35;100.00;101317.53;5012130;28;20045;-76
2021/08/31 04:53:00;;;;;;;1.52;0.52;;;;;;;14.15;100.00;101317.94;5013966;28;20037;-76
2021/08/31 04:56:03;;;;;;;1.40;0.80;;;;;;;13.99;100.00;101326.59;5016193;28;20123;-76
2021/08/31 04:59:06;;;;;;;1.50;0.70;;;;;;;13.88;100.00;101328.31;5015770;28;20041;-76
2021/08/31 05:02:09;;;;;;;0.82;0.80;;;;;;;13.76;100.00;101332.78;5015736;28;20040;-76
2021/08/31 05:05:13;;;;;;;2.65;1.13;;;;;;;13.64;100.00;101328.84;5015829;28;20511;-76
2021/08/31 05:08:16;;;;;;;2.45;0.80;;;;;;;13.59;100.00;101339.88;5015931;28;20069;-76
2021/08/31 05:11:22;;;;;;;2.63;0.85;;;;;;;13.55;100.00;101340.00;5015374;28;20411;-76
2021/08/31 05:14:25;;;;;;;1.02;0.50;;;;;;;13.62;100.00;101333.34;5015128;28;20048;-76
2021/08/31 05:17:28;;;;;;;0.65;0.50;;;;;;;13.61;100.00;101335.38;5015158;28;20180;-76
2021/08/31 05:20:32;;;;;;;1.75;0.95;;;;;;;13.67;100.00;101344.72;5015259;28;20061;-77
2021/08/31 05:23:36;;;;;;;2.83;1.42;;;;;;;13.74;100.00;101345.66;5015243;28;20037;-77
2021/08/31 05:26:39;;;;;;;1.25;0.40;;;;;;;13.82;100.00;101346.97;5015107;28;20057;-76
2021/08/31 05:29:42;;;;;;;1.10;0.75;;;;;;;13.88;100.00;101351.47;5014980;28;20125;-76
2021/08/31 05:32:44;;;;;;;0.85;0.60;;;;;;;13.94;100.00;101346.06;5015236;28;20144;-79
2021/08/31 05:35:47;;;;;;;3.45;0.70;;;;;;;14.01;100.00;101352.13;5015596;28;20095;-80
2021/08/31 05:38:50;;;;;;;2.40;1.00;;;;;;;14.13;100.00;101350.44;5015329;28;20096;-80
2021/08/31 05:41:53;;;;;;;7.30;1.05;;;;;;;14.19;100.00;101354.97;5013990;28;20400;-79
2021/08/31 05:44:56;;;;;;;7.43;0.80;;;;;;;14.32;100.00;101352.06;5015004;28;20053;-80
2021/08/31 05:47:59;;;;;;;4.45;1.13;;;;;;;14.34;100.00;101355.97;5014991;28;20048;-81
2021/08/31 05:51:03;;;;;;;7.97;1.25;;;;;;;14.44;100.00;101354.72;5015383;28;20414;-80
2021/08/31 05:54:05;;;;;;;3.95;1.48;;;;;;;14.47;100.00;101360.66;5015059;28;20566;-80
2021/08/31 05:57:11;;;;;;;1.73;0.52;;;;;;;14.47;100.00;101357.88;5014864;28;20111;-80
2021/08/31 06:00:14;;;;;;;1.65;1.23;;;;;;;14.49;100.00;101361.75;5014133;28;20080;-81
2021/08/31 06:03:18;;;;;;;3.85;1.10;;;;;;;14.54;100.00;101363.16;5014010;28;20088;-81
2021/08/31 06:06:21;;;;;;;0.80;0.80;;;;;;;14.67;100.00;101369.38;5014639;28;20553;-80
2021/08/31 06:09:24;;;;;;;1.70;0.77;;;;;;;14.67;100.00;101361.75;4994902;28;20112;-80
2021/08/31 06:12:27;;;;;;;5.05;1.08;;;;;;;14.74;100.00;101364.25;4994950;28;20049;-80
2021/08/31 06:15:30;;;;;;;13.70;0.82;;;;;;;14.73;100.00;101359.88;4994904;28;20085;-80
2021/08/31 06:18:32;;;;;;;0.40;0.30;;;;;;;14.79;100.00;101369.22;4994536;28;20116;-80
2021/08/31 06:21:35;;;;;;;3.83;0.95;;;;;;;14.89;100.00;101367.22;4994651;28;20044;-80
2021/08/31 06:24:38;;;;;;;1.08;0.63;;;;;;;14.93;100.00;101374.22;5005294;28;20120;-80
2021/08/31 06:27:41;;;;;;;2.45;1.35;;;;;;;15.02;100.00;101365.81;4994663;28;20057;-80
2021/08/31 06:30:44;;;;;;;0.98;0.63;;;;;;;15.06;100.00;101365.63;4994647;28;20056;-80
2021/08/31 06:33:47;;;;;;;2.00;0.90;;;;;;;15.11;100.00;101371.41;4994850;28;20477;-80
2021/08/31 06:36:50;;;;;;;1.38;0.90;;;;;;;15.11;100.00;101379.03;4995072;28;20046;-80
2021/08/31 06:39:52;;;;;;;0.75;0.15;;;;;;;15.20;100.00;101374.16;4994852;28;20093;-80
2021/08/31 06:42:55;;;;;;;2.92;1.27;;;;;;;15.34;100.00;101374.78;4994775;28;20049;-81
2021/08/31 06:45:58;;;;;;;7.22;0.98;;;;;;;15.40;100.00;101378.53;4994617;28;20541;-80
2021/08/31 06:49:01;;;;;;;6.00;0.93;;;;;;;15.40;100.00;101378.53;4994542;28;20650;-80
2021/08/31 06:52:05;;;;;;;2.10;0.73;;;;;;;15.45;100.00;101375.09;4994564;28;20049;-80
2021/08/31 06:55:09;;;;;;;0.75;0.75;;;;;;;15.47;100.00;101378.97;4994376;28;20045;-80
2021/08/31 06:58:11;;;;;;;6.75;0.82;;;;;;;15.48;100.00;101386.16;4994474;28;20073;-81
2021/08/31 07:01:14;;;;;;;5.28;1.20;;;;;;;15.49;100.00;101386.91;4994328;28;20574;-80
2021/08/31 07:04:18;;;;;;;1.95;0.28;;;;;;;15.59;100.00;101392.03;5004742;28;20045;-80
2021/08/31 07:07:21;;;;;;;0.90;0.30;;;;;;;15.66;100.00;101379.69;4997529;28;20045;-80
2021/08/31 07:10:24;;;;;;;1.92;1.13;;;;;;;15.71;100.00;101390.28;5013317;28;20049;-80
2021/08/31 07:13:27;;;;;;;2.63;0.30;;;;;;;15.82;100.00;101387.75;5013264;28;20096;-80
2021/08/31 07:16:30;;;;;;;0.50;0.30;;;;;;;15.84;100.00;101388.84;5012865;28;20053;-80
2021/08/31 07:19:33;;;;;;;0.43;0.20;;;;;;;15.88;100.00;101386.63;5013253;28;20400;-81
2021/08/31 07:22:35;;;;;;;1.20;0.55;;;;;;;15.89;100.00;101398.66;5013315;28;20073;-81
2021/08/31 07:25:38;;;;;;;2.30;0.73;;;;;;;15.86;100.00;101389.13;5013575;28;20597;-81
2021/08/31 07:28:41;;;;;;;5.13;0.75;;;;;;;15.85;100.00;101398.06;5013319;28;20052;-81
2021/08/31 07:31:44;;;;;;;1.83;0.93;;;;;;;15.89;100.00;101398.66;5013281;28;20115;-81
2021/08/31 07:34:47;;;;;;;2.85;1.17;;;;;;;16.06;100.00;101391.38;5001393;28;20396;-81
2021/08/31 07:37:49;;;;;;;0.77;0.32;;;;;;;16.21;100.00;101400.69;5013691;28;20056;-81
2021/08/31 07:40:52;;;;;;;2.00;0.77;;;;;;;16.29;100.00;101396.25;5013109;28;20065;-80
2021/08/31 07:43:55;;;;;;;1.00;0.77;;;;;;;16.33;100.00;101398.91;5013188;28;20076;-81
2021/08/31 07:46:58;;;;;;;0.95;0.70;;;;;;;16.46;100.00;101397.38;5013212;28;20096;-81
2021/08/31 07:50:03;;;;;;;2.38;1.08;;;;;;;16.46;100.00;101408.63;5012996;28;20057;-83
2021/08/31 07:53:06;;;;;;;1.08;0.50;;;;;;;14.81;100.00;101417.22;5013108;28;20137;-79
2021/08/31 07:56:09;;;;;;;2.85;0.77;;;;;;;15.73;100.00;101413.06;5012938;28;20048;-79
2021/08/31 07:59:12;;;;;;;0.30;0.20;;;;;;;15.89;100.00;101421.91;5013072;28;20107;-81
2021/08/31 08:02:15;;;;;;;4.07;1.45;;;;;;;15.67;100.00;101423.38;5012669;28;20083;-81
2021/08/31 08:05:17;;;;;;;1.63;0.88;;;;;;;15.70;100.00;101416.84;5012183;28;20083;-81
2021/08/31 08:08:20;;;;;;;0.50;0.40;;;;;;;16.43;100.00;101423.66;5011599;28;20088;-80
2021/08/31 08:11:24;;;;;;;0.95;0.47;;;;;;;16.52;100.00;101423.63;5012177;28;20045;-80
2021/08/31 08:14:27;;;;;;;0.63;0.28;;;;;;;16.72;100.00;101425.06;5012585;28;20095;-80
2021/08/31 08:17:30;;;;;;;0.45;0.20;;;;;;;16.47;100.00;101432.69;5012291;28;20036;-81
2021/08/31 08:20:33;;;;;;;0.28;0.13;;;;;;;16.49;100.00;101429.41;5012291;28;20044;-81
2021/08/31 08:23:36;;;;;;;0.28;0.17;;;;;;;16.72;100.00;101430.69;5000273;28;20051;-81
2021/08/31 08:26:39;;;;;;;1.73;0.68;;;;;;;16.64;100.00;101430.28;5011188;28;20053;-80
2021/08/31 08:29:42;;;;;;;0.35;0.30;;;;;;;16.64;100.00;101427.47;5012250;28;20534;-80
2021/08/31 08:32:46;;;;;;;0.22;0.10;;;;;;;16.79;100.00;101424.69;4985445;28;20045;-80
2021/08/31 08:35:49;;;;;;;1.17;0.50;;;;;;;17.00;100.00;101417.97;4976718;28;20084;-80
2021/08/31 08:38:52;;;;;;;5.93;0.40;;;;;;;17.05;100.00;101420.88;4982119;28;21139;-81
2021/08/31 08:41:55;;;;;;;0.20;0.20;;;;;;;17.19;100.00;101425.00;4975297;28;20033;-81
2021/08/31 08:44:59;;;;;;;4.25;0.50;;;;;;;17.50;100.00;101419.69;4975768;28;20663;-80
2021/08/31 08:48:02;;;;;;;3.63;0.10;;;;;;;17.56;100.00;101425.44;4975825;28;20037;-80
2021/08/31 08:51:06;;;;;;;1.90;0.25;;;;;;;17.32;100.00;101428.31;4977210;28;20065;-81
2021/08/31 08:54:09;;;;;;;1.88;0.63;;;;;;;17.42;100.00;101427.72;4977085;28;20688;-81
2021/08/31 08:57:15;;;;;;;1.83;0.52;;;;;;;17.44;100.00;101424.41;4975087;28;20093;-82
2021/08/31 09:00:20;;;;;;;0.50;0.13;;;;;;;17.66;100.00;101424.84;4975163;28;20758;-82
2021/08/31 09:03:24;;;;;;;0.10;0.10;;;;;;;17.68;100.00;101422.31;4974005;28;20095;-81
2021/08/31 09:06:27;;;;;;;0.10;0.10;;;;;;;17.12;100.00;101422.53;4972894;28;20064;-81
2021/08/31 09:09:30;;;;;;;0.20;0.20;;;;;;;16.39;100.00;101423.06;4952753;28;20061;-81
2021/08/31 09:12:34;;;;;;;1.38;0.28;;;;;;;17.78;100.00;101412.47;4953617;28;20033;-81
2021/08/31 09:15:40;;;;;;;0.80;0.13;;;;;;;17.79;100.00;101425.31;4955593;28;20037;-82
2021/08/31 09:18:51;;;;;;;0.75;0.32;;;;;;;17.87;100.00;101423.66;4952442;28;20042;-79
2021/08/31 09:22:16;;;;;;;0.25;0.22;;;;;;;17.83;100.00;101427.94;4952165;28;20100;-80
2021/08/31 09:25:32;;;;;;;1.35;0.40;;;;;;;17.74;100.00;101437.25;4951495;28;20136;-80
2021/08/31 09:28:40;;;;;;;0.32;0.20;;;;;;;17.79;100.00;101430.94;4951832;28;20109;-80
2021/08/31 09:31:46;;;;;;;0.82;0.25;;;;;;;18.08;100.00;101430.88;4951187;28;20030;-80
2021/08/31 09:34:49;;;;;;;0.45;0.45;;;;;;;18.28;100.00;101426.59;4952032;28;20053;-81
2021/08/31 09:37:57;;;;;;;1.85;0.20;;;;;;;18.54;100.00;101430.28;4951734;28;20917;-81
2021/08/31 09:41:01;;;;;;;2.08;0.25;;;;;;;18.48;100.00;101433.06;4955120;28;20089;-81
2021/08/31 09:44:10;;;;;;;0.43;0.10;;;;;;;18.21;100.00;101441.88;4965874;28;20034;-82
2021/08/31 09:47:14;;;;;;;0.30;0.17;;;;;;;18.09;100.00;101443.75;4955583;28;20707;-81
2021/08/31 09:50:29;;;;;;;0.10;0.10;;;;;;;18.09;100.00;101446.56;4966005;28;20042;-81
2021/08/31 09:53:35;;;;;;;1.17;0.30;;;;;;;18.22;100.00;101449.06;4955705;28;20056;-81
2021/08/31 09:56:38;;;;;;;0.47;0.40;;;;;;;18.26;100.00;101443.22;4956217;28;20036;-82
2021/08/31 09:59:41;;;;;;;1.80;0.13;;;;;;;18.43;100.00;101449.88;4955875;28;20037;-80
2021/08/31 10:02:48;;;;;;;0.40;0.10;;;;;;;18.66;100.00;101448.94;4955307;28;20660;-81
2021/08/31 10:05:53;;;;;;;1.10;0.10;;;;;;;18.83;100.00;101439.41;4942979;28;21146;-81
2021/08/31 10:08:56;;;;;;;0.80;0.20;;;;;;;18.77;100.00;101437.81;4959430;28;20167;-81
2021/08/31 10:12:00;;;;;;;0.32;0.20;;;;;;;18.69;100.00;101439.50;4975279;28;20065;-82
2021/08/31 10:15:05;;;;;;;1.95;0.45;;;;;;;18.69;100.00;101442.31;4975381;28;20033;-81
2021/08/31 10:18:09;;;;;;;9.18;0.55;;;;;;;18.82;100.00;101437.06;4975585;28;20096;-81
2021/08/31 10:21:14;;;;;;;1.63;0.28;;;;;;;19.05;100.00;101441.72;4962733;28;20631;-80
2021/08/31 10:24:17;;;;;;;0.20;0.10;;;;;;;19.40;100.00;101439.59;4975690;28;20621;-79
2021/08/31 10:27:29;;;;;;;0.20;0.10;;;;;;;19.66;100.00;101440.31;4975486;28;20769;-82
2021/08/31 10:30:36;;;;;;;2.33;0.10;;;;;;;18.68;100.00;101443.56;4975306;28;20040;-80
2021/08/31 10:33:40;;;;;;;1.55;0.00;;;;;;;19.64;100.00;101448.53;4976097;28;20088;-79
2021/08/31 10:36:44;;;;;;;0.80;0.25;;;;;;;18.87;100.00;101453.31;4973957;28;20779;-79
2021/08/31 10:39:48;;;;;;;0.57;0.20;;;;;;;17.55;100.00;101468.94;4972660;28;20777;-79
2021/08/31 10:42:51;;;;;;;0.55;0.20;;;;;;;16.58;100.00;101475.16;4972514;28;20845;-79
2021/08/31 10:45:57;;;;;;;2.17;0.30;;;;;;;16.35;100.00;101464.63;4972500;28;20024;-80
2021/08/31 10:49:02;;;;;;;0.15;0.03;;;;;;;16.89;100.00;101463.53;4973403;28;20762;-79
2021/08/31 10:52:07;;;;;;;0.68;0.10;;;;;;;18.43;100.00;101464.00;4965113;28;20038;-77
2021/08/31 10:55:23;;;;;;;0.70;0.20;;;;;;;18.74;100.00;101455.72;4959716;28;20114;-78
2021/08/31 10:58:42;;;;;;;0.10;0.00;;;;;;;18.81;100.00;101456.06;4941378;28;20911;-79
2021/08/31 11:01:45;;;;;;;0.55;0.05;;;;;;;18.82;100.00;101466.09;4971378;28;20033;-79
2021/08/31 11:05:09;;;;;;;0.85;0.10;;;;;;;17.11;100.00;101468.84;4973053;28;20062;-77
2021/08/31 11:08:13;;;;;;;0.10;0.10;;;;;;;16.67;100.00;101475.09;4972784;28;20057;-77
2021/08/31 11:11:18;;;;;;;1.60;0.03;;;;;;;16.50;100.00;101476.75;4973554;28;20033;-79
2021/08/31 11:14:20;;;;;;;0.30;0.15;;;;;;;16.33;100.00;101475.56;4953534;28;20030;-77
2021/08/31 11:17:40;;;;;;;0.50;0.10;;;;;;;17.19;100.00;101482.09;4952888;28;20108;-79
2021/08/31 11:20:45;;;;;;;2.80;0.25;;;;;;;17.64;100.00;101478.09;4953536;28;20061;-79
2021/08/31 11:23:49;;;;;;;2.15;0.10;;;;;;;17.88;100.00;101470.31;4963672;28;20739;-80
2021/08/31 11:26:59;;;;;;;1.80;0.20;;;;;;;18.01;100.00;101473.59;4972799;28;20741;-80
2021/08/31 11:30:03;;;;;;;2.13;0.20;;;;;;;18.39;100.00;101477.50;4960157;28;20092;-79
2021/08/31 11:33:25;;;;;;;0.55;0.10;;;;;;;18.77;100.00;101472.47;4973922;28;20174;-79
2021/08/31 11:36:31;;;;;;;0.50;0.20;;;;;;;16.73;100.00;101477.25;4972367;28;20687;-78
2021/08/31 11:39:34;;;;;;;2.10;0.20;;;;;;;16.16;100.00;101480.03;4959812;28;20052;-79
2021/08/31 11:42:54;;;;;;;0.10;0.00;;;;;;;15.97;100.00;101475.72;4972777;28;20873;-78
2021/08/31 11:45:57;;;;;;;0.32;0.10;;;;;;;16.00;100.00;101471.97;4973226;28;20080;-79
2021/08/31 11:49:20;;;;;;;0.43;0.30;;;;;;;16.17;100.00;101480.81;4973408;28;20125;-80
2021/08/31 11:52:24;;;;;;;0.40;0.17;;;;;;;16.46;100.00;101473.31;4973702;28;20092;-79
2021/08/31 11:55:27;;;;;;;0.25;0.10;;;;;;;16.74;100.00;101478.81;4974474;28;20029;-79
2021/08/31 11:58:41;;;;;;;0.10;0.00;;;;;;;18.01;100.00;101473.59;4974410;28;20061;-79
2021/08/31 12:01:44;;;;;;;0.00;0.00;;;;;;;18.43;100.00;101472.44;4978120;28;20037;-82
2021/08/31 12:04:53;;;;;;;0.40;0.20;;;;;;;18.40;100.00;101476.25;4965638;28;20040;-82
2021/08/31 12:07:56;;;;;;;0.30;0.10;;;;;;;18.38;100.00;101478.78;4978124;28;20911;-81
2021/08/31 12:11:00;;;;;;;0.98;0.22;;;;;;;18.31;100.00;101487.63;4981391;28;20088;-81
2021/08/31 12:14:03;;;;;;;0.20;0.10;;;;;;;17.94;100.00;101492.94;4975424;28;20033;-81
2021/08/31 12:17:08;;;;;;;2.20;0.57;;;;;;;17.23;100.00;101499.56;4978797;28;20036;-81
2021/08/31 12:20:16;;;;;;;7.13;0.45;;;;;;;18.21;100.00;101491.84;4977665;28;20115;-81
2021/08/31 12:23:30;;;;;;;0.85;0.40;;;;;;;18.63;100.00;101489.41;4973757;28;20033;-80
2021/08/31 12:26:36;;;;;;;0.98;0.22;;;;;;;20.27;100.00;101482.53;4973214;28;20080;-80
2021/08/31 12:29:46;;;;;;;1.92;0.85;;;;;;;20.88;100.00;101483.63;4976545;28;20053;-80
2021/08/31 12:32:57;;;;;;;1.17;0.37;;;;;;;21.78;100.00;101483.41;4975715;28;20145;-80
2021/08/31 12:36:01;;;;;;;;;;;;;;;20.60;100.00;101477.06;4976314;28;20304;-79
2021/08/31 12:39:23;;;;;;;3.15;0.30;;;;;;;21.22;100.00;101475.31;4975538;28;20631;-79
2021/08/31 12:42:26;;;;;;;1.35;0.25;;;;;;;19.65;100.00;101475.53;4974306;28;20431;-79
2021/08/31 12:45:29;;;;;;;0.85;0.30;;;;;;;19.08;100.00;101480.25;4975916;28;20032;-79
2021/08/31 12:48:45;;;;;;;4.18;0.68;;;;;;;18.76;100.00;101487.81;4984363;28;20056;-84
2021/08/31 12:51:51;;;;;;;0.75;0.28;;;;;;;18.77;100.00;101491.44;4987079;28;20037;-89
2021/08/31 12:55:16;;;;;;;0.90;0.30;;;;;;;18.90;100.00;101481.34;4987283;28;20033;-87
2021/08/31 12:58:33;;;;;;;2.30;0.40;;;;;;;17.55;100.00;101492.25;4985279;28;20849;-91
2021/08/31 13:01:53;;;;;;;1.35;0.10;;;;;;;16.90;100.00;101496.06;4975161;28;20127;-86
2021/08/31 13:05:12;;;;;;;2.50;0.57;;;;;;;16.96;100.00;101491.31;4974854;28;20092;-87
2021/08/31 13:08:15;;;;;;;1.88;0.55;;;;;;;17.37;100.00;101496.00;4997596;28;20029;-88
2021/08/31 13:11:18;;;;;;;1.58;0.30;;;;;;;17.96;100.00;101487.59;4973212;28;20041;-85
2021/08/31 13:14:27;;;;;;;1.70;0.63;;;;;;;17.83;100.00;101484.28;4988539;28;20070;-89
2021/08/31 13:17:29;;;;;;;1.45;0.30;;;;;;;17.73;100.00;101491.31;4979275;28;20037;-89
2021/08/31 13:20:32;;;;;;;2.03;0.80;;;;;;;17.80;100.00;101491.69;4981136;28;20033;-83
2021/08/31 13:23:35;;;;;;;2.95;0.35;;;;;;;17.40;100.00;101486.59;4972311;28;20061;-81
2021/08/31 13:26:40;;;;;;;4.70;0.98;;;;;;;17.21;100.00;101481.59;4961277;28;20146;-81
2021/08/31 13:29:43;;;;;;;1.63;0.77;;;;;;;17.41;100.00;101481.72;4962350;28;20049;-83
2021/08/31 13:32:46;;;;;;;3.85;0.60;;;;;;;17.97;100.00;101475.84;4964486;28;20652;-84
2021/08/31 13:35:48;;;;;;;2.72;0.55;;;;;;;18.54;100.00;101487.50;4962515;28;20057;-83
2021/08/31 13:38:52;;;;;;;3.30;0.43;;;;;;;18.27;100.00;101487.84;4956829;28;20033;-82
2021/08/31 13:41:56;;;;;;;0.52;0.25;;;;;;;18.31;100.00;101479.19;4983874;28;20057;-80
2021/08/31 13:44:59;;;;;;;6.25;1.08;;;;;;;18.58;100.00;101488.06;4980125;28;20095;-82
2021/08/31 13:48:02;;;;;;;1.20;0.47;;;;;;;18.57;100.00;101488.56;4981352;28;20716;-82
2021/08/31 13:51:05;;;;;;;1.38;0.50;;;;;;;18.92;100.00;101483.66;4983103;28;20092;-83
2021/08/31 13:54:08;;;;;;;0.65;0.30;;;;;;;18.97;100.00;101480.16;4981930;28;20037;-82
2021/08/31 13:57:11;;;;;;;0.90;0.40;;;;;;;19.18;100.00;101478.84;4979220;28;20060;-83
2021/08/31 14:00:14;;;;;;;1.45;0.43;;;;;;;19.26;100.00;101474.31;4989473;28;20794;-82
2021/08/31 14:03:18;;;;;;;1.17;0.43;;;;;;;19.29;100.00;101479.00;4979001;28;20656;-82
2021/08/31 14:06:21;;;;;;;0.75;0.43;;;;;;;19.30;100.00;101469.22;4978675;28;20547;-83
2021/08/31 14:09:24;;;;;;;4.13;1.00;;;;;;;19.40;100.00;101473.50;4979126;28;20060;-83